sensor_id;sensor_type;location;lat;lon;timestamp;P1;durP1;ratioP1;P2;durP2;ratioP2
10275;SDS011;5183;51.190;6.820;2023-01-24T00:01:12;24.90;;;18.30;;
10275;SDS011;5183;51.190;6.820;2023-01-24T00:03:40;21.20;;;17.40;;
10275;SDS011;5183;51.190;6.820;2023-01-24T00:06:09;22.30;;;18.27;;
10275;SDS011;5183;51.190;6.820;2023-01-24T00:08:36;22.63;;;18.10;;
10275;SDS011;5183;51.190;6.820;2023-01-24T00:11:03;21.73;;;18.03;;
10275;SDS011;5183;51.190;6.820;2023-01-24T00:13:31;20.90;;;17.83;;
10275;SDS011;5183;51.190;6.820;2023-01-24T00:16:03;23.10;;;18.40;;
10275;SDS011;5183;51.190;6.820;2023-01-24T00:18:33;22.43;;;19.17;;
10275;SDS011;5183;51.190;6.820;2023-01-24T00:21:02;22.43;;;18.10;;
10275;SDS011;5183;51.190;6.820;2023-01-24T00:23:30;21.23;;;17.60;;
10275;SDS011;5183;51.190;6.820;2023-01-24T00:25:57;22.63;;;18.70;;
10275;SDS011;5183;51.190;6.820;2023-01-24T00:28:24;23.30;;;18.60;;
10275;SDS011;5183;51.190;6.820;2023-01-24T00:30:51;21.77;;;17.50;;
10275;SDS011;5183;51.190;6.820;2023-01-24T00:33:17;22.20;;;17.77;;
10275;SDS011;5183;51.190;6.820;2023-01-24T00:35:47;21.53;;;17.00;;
10275;SDS011;5183;51.190;6.820;2023-01-24T00:38:20;19.77;;;15.87;;
10275;SDS011;5183;51.190;6.820;2023-01-24T00:40:48;19.83;;;16.07;;
10275;SDS011;5183;51.190;6.820;2023-01-24T00:43:18;20.20;;;16.67;;
10275;SDS011;5183;51.190;6.820;2023-01-24T00:45:44;20.60;;;16.03;;
10275;SDS011;5183;51.190;6.820;2023-01-24T00:48:12;18.73;;;15.80;;
10275;SDS011;5183;51.190;6.820;2023-01-24T00:50:39;19.60;;;16.30;;
10275;SDS011;5183;51.190;6.820;2023-01-24T00:53:10;18.63;;;15.47;;
10275;SDS011;5183;51.190;6.820;2023-01-24T00:55:44;20.30;;;15.73;;
10275;SDS011;5183;51.190;6.820;2023-01-24T00:58:14;18.83;;;15.63;;
10275;SDS011;5183;51.190;6.820;2023-01-24T01:00:42;19.40;;;15.20;;
10275;SDS011;5183;51.190;6.820;2023-01-24T01:03:11;19.20;;;15.63;;
10275;SDS011;5183;51.190;6.820;2023-01-24T01:05:41;19.93;;;16.03;;
10275;SDS011;5183;51.190;6.820;2023-01-24T01:08:09;18.87;;;15.23;;
10275;SDS011;5183;51.190;6.820;2023-01-24T01:10:37;18.90;;;15.67;;
10275;SDS011;5183;51.190;6.820;2023-01-24T01:13:07;16.10;;;14.20;;
10275;SDS011;5183;51.190;6.820;2023-01-24T01:15:39;17.97;;;14.83;;
10275;SDS011;5183;51.190;6.820;2023-01-24T01:18:06;18.37;;;15.67;;
10275;SDS011;5183;51.190;6.820;2023-01-24T01:20:33;16.47;;;13.93;;
10275;SDS011;5183;51.190;6.820;2023-01-24T01:23:09;18.93;;;15.30;;
10275;SDS011;5183;51.190;6.820;2023-01-24T01:25:37;20.03;;;14.70;;
10275;SDS011;5183;51.190;6.820;2023-01-24T01:28:10;18.53;;;14.67;;
10275;SDS011;5183;51.190;6.820;2023-01-24T01:30:38;17.60;;;13.67;;
10275;SDS011;5183;51.190;6.820;2023-01-24T01:33:05;17.00;;;13.77;;
10275;SDS011;5183;51.190;6.820;2023-01-24T01:35:32;17.20;;;13.77;;
10275;SDS011;5183;51.190;6.820;2023-01-24T01:37:59;18.53;;;14.47;;
10275;SDS011;5183;51.190;6.820;2023-01-24T01:40:31;16.70;;;13.90;;
10275;SDS011;5183;51.190;6.820;2023-01-24T01:42:58;16.07;;;13.47;;
10275;SDS011;5183;51.190;6.820;2023-01-24T01:45:34;14.97;;;12.60;;
10275;SDS011;5183;51.190;6.820;2023-01-24T01:48:04;15.10;;;12.53;;
10275;SDS011;5183;51.190;6.820;2023-01-24T01:50:47;13.90;;;12.37;;
10275;SDS011;5183;51.190;6.820;2023-01-24T01:53:18;14.70;;;12.73;;
10275;SDS011;5183;51.190;6.820;2023-01-24T01:55:56;13.97;;;12.07;;
10275;SDS011;5183;51.190;6.820;2023-01-24T01:58:26;13.73;;;12.13;;
10275;SDS011;5183;51.190;6.820;2023-01-24T02:00:58;14.97;;;12.43;;
10275;SDS011;5183;51.190;6.820;2023-01-24T02:03:27;12.73;;;11.40;;
10275;SDS011;5183;51.190;6.820;2023-01-24T02:06:13;13.57;;;11.37;;
10275;SDS011;5183;51.190;6.820;2023-01-24T02:08:48;12.47;;;10.87;;
10275;SDS011;5183;51.190;6.820;2023-01-24T02:11:26;13.20;;;11.80;;
10275;SDS011;5183;51.190;6.820;2023-01-24T02:14:07;14.33;;;12.07;;
10275;SDS011;5183;51.190;6.820;2023-01-24T02:16:54;14.10;;;11.53;;
10275;SDS011;5183;51.190;6.820;2023-01-24T02:19:24;13.40;;;11.60;;
10275;SDS011;5183;51.190;6.820;2023-01-24T02:22:11;14.30;;;12.27;;
10275;SDS011;5183;51.190;6.820;2023-01-24T02:24:43;12.37;;;10.90;;
10275;SDS011;5183;51.190;6.820;2023-01-24T02:27:18;14.17;;;12.17;;
10275;SDS011;5183;51.190;6.820;2023-01-24T02:29:45;14.37;;;12.03;;
10275;SDS011;5183;51.190;6.820;2023-01-24T02:32:13;13.77;;;11.97;;
10275;SDS011;5183;51.190;6.820;2023-01-24T02:34:47;13.03;;;10.93;;
10275;SDS011;5183;51.190;6.820;2023-01-24T02:37:14;13.37;;;10.50;;
10275;SDS011;5183;51.190;6.820;2023-01-24T02:39:43;11.97;;;10.47;;
10275;SDS011;5183;51.190;6.820;2023-01-24T02:42:21;12.77;;;10.53;;
10275;SDS011;5183;51.190;6.820;2023-01-24T02:44:52;11.10;;;9.87;;
10275;SDS011;5183;51.190;6.820;2023-01-24T02:47:29;11.60;;;10.40;;
10275;SDS011;5183;51.190;6.820;2023-01-24T02:50:04;10.80;;;9.60;;
10275;SDS011;5183;51.190;6.820;2023-01-24T02:52:33;11.73;;;10.53;;
10275;SDS011;5183;51.190;6.820;2023-01-24T02:55:24;12.97;;;10.77;;
10275;SDS011;5183;51.190;6.820;2023-01-24T02:57:53;11.00;;;9.80;;
10275;SDS011;5183;51.190;6.820;2023-01-24T03:00:40;12.33;;;10.03;;
10275;SDS011;5183;51.190;6.820;2023-01-24T03:03:08;10.67;;;9.57;;
10275;SDS011;5183;51.190;6.820;2023-01-24T03:05:35;11.50;;;9.33;;
10275;SDS011;5183;51.190;6.820;2023-01-24T03:08:21;11.33;;;9.73;;
10275;SDS011;5183;51.190;6.820;2023-01-24T03:10:52;10.83;;;9.73;;
10275;SDS011;5183;51.190;6.820;2023-01-24T03:13:21;11.93;;;10.43;;
10275;SDS011;5183;51.190;6.820;2023-01-24T03:16:06;11.07;;;9.80;;
10275;SDS011;5183;51.190;6.820;2023-01-24T03:18:56;11.67;;;10.07;;
10275;SDS011;5183;51.190;6.820;2023-01-24T03:21:45;11.97;;;10.07;;
10275;SDS011;5183;51.190;6.820;2023-01-24T03:24:33;11.73;;;10.10;;
10275;SDS011;5183;51.190;6.820;2023-01-24T03:27:17;12.33;;;10.40;;
10275;SDS011;5183;51.190;6.820;2023-01-24T03:30:02;13.83;;;11.67;;
10275;SDS011;5183;51.190;6.820;2023-01-24T03:32:57;13.43;;;11.13;;
10275;SDS011;5183;51.190;6.820;2023-01-24T03:35:42;16.20;;;11.97;;
10275;SDS011;5183;51.190;6.820;2023-01-24T03:38:20;14.07;;;12.53;;
10275;SDS011;5183;51.190;6.820;2023-01-24T03:41:07;17.93;;;14.03;;
10275;SDS011;5183;51.190;6.820;2023-01-24T03:43:36;21.77;;;17.13;;
10275;SDS011;5183;51.190;6.820;2023-01-24T03:46:07;17.07;;;13.13;;
10275;SDS011;5183;51.190;6.820;2023-01-24T03:48:33;15.10;;;12.20;;
10275;SDS011;5183;51.190;6.820;2023-01-24T03:51:07;12.87;;;11.00;;
10275;SDS011;5183;51.190;6.820;2023-01-24T03:53:52;12.30;;;10.30;;
10275;SDS011;5183;51.190;6.820;2023-01-24T03:56:20;12.30;;;9.80;;
10275;SDS011;5183;51.190;6.820;2023-01-24T03:58:47;12.40;;;10.50;;
10275;SDS011;5183;51.190;6.820;2023-01-24T04:01:15;11.80;;;10.10;;
10275;SDS011;5183;51.190;6.820;2023-01-24T04:03:42;11.27;;;10.07;;
10275;SDS011;5183;51.190;6.820;2023-01-24T04:06:09;11.87;;;10.17;;
10275;SDS011;5183;51.190;6.820;2023-01-24T04:08:37;12.17;;;10.87;;
10275;SDS011;5183;51.190;6.820;2023-01-24T04:11:06;12.53;;;9.87;;
10275;SDS011;5183;51.190;6.820;2023-01-24T04:13:33;12.50;;;10.03;;
10275;SDS011;5183;51.190;6.820;2023-01-24T04:16:00;13.27;;;10.83;;
10275;SDS011;5183;51.190;6.820;2023-01-24T04:18:28;11.93;;;10.43;;
10275;SDS011;5183;51.190;6.820;2023-01-24T04:20:55;11.87;;;10.37;;
10275;SDS011;5183;51.190;6.820;2023-01-24T04:23:22;12.40;;;10.37;;
10275;SDS011;5183;51.190;6.820;2023-01-24T04:25:49;13.83;;;11.63;;
10275;SDS011;5183;51.190;6.820;2023-01-24T04:28:21;11.30;;;10.00;;
10275;SDS011;5183;51.190;6.820;2023-01-24T04:30:49;11.47;;;9.53;;
10275;SDS011;5183;51.190;6.820;2023-01-24T04:33:24;11.50;;;9.83;;
10275;SDS011;5183;51.190;6.820;2023-01-24T04:35:55;12.43;;;10.63;;
10275;SDS011;5183;51.190;6.820;2023-01-24T04:38:22;11.97;;;10.10;;
10275;SDS011;5183;51.190;6.820;2023-01-24T04:40:55;12.73;;;11.10;;
10275;SDS011;5183;51.190;6.820;2023-01-24T04:43:25;11.33;;;9.83;;
10275;SDS011;5183;51.190;6.820;2023-01-24T04:45:54;13.00;;;11.30;;
10275;SDS011;5183;51.190;6.820;2023-01-24T04:48:21;10.23;;;9.03;;
10275;SDS011;5183;51.190;6.820;2023-01-24T04:50:48;10.63;;;8.87;;
10275;SDS011;5183;51.190;6.820;2023-01-24T04:53:16;10.07;;;8.60;;
10275;SDS011;5183;51.190;6.820;2023-01-24T04:55:43;10.60;;;9.23;;
10275;SDS011;5183;51.190;6.820;2023-01-24T04:58:10;10.80;;;9.13;;
10275;SDS011;5183;51.190;6.820;2023-01-24T05:00:37;11.73;;;9.23;;
10275;SDS011;5183;51.190;6.820;2023-01-24T05:03:03;10.53;;;9.13;;
10275;SDS011;5183;51.190;6.820;2023-01-24T05:05:30;11.43;;;9.40;;
10275;SDS011;5183;51.190;6.820;2023-01-24T05:07:57;11.57;;;9.37;;
10275;SDS011;5183;51.190;6.820;2023-01-24T05:10:25;12.73;;;9.33;;
10275;SDS011;5183;51.190;6.820;2023-01-24T05:12:58;9.97;;;8.97;;
10275;SDS011;5183;51.190;6.820;2023-01-24T05:15:25;10.47;;;9.13;;
10275;SDS011;5183;51.190;6.820;2023-01-24T05:17:52;10.00;;;9.00;;
10275;SDS011;5183;51.190;6.820;2023-01-24T05:20:19;12.23;;;9.90;;
10275;SDS011;5183;51.190;6.820;2023-01-24T05:22:46;11.80;;;9.90;;
10275;SDS011;5183;51.190;6.820;2023-01-24T05:25:20;10.07;;;9.00;;
10275;SDS011;5183;51.190;6.820;2023-01-24T05:27:48;10.50;;;9.40;;
10275;SDS011;5183;51.190;6.820;2023-01-24T05:30:15;11.97;;;10.10;;
10275;SDS011;5183;51.190;6.820;2023-01-24T05:32:57;11.63;;;9.77;;
10275;SDS011;5183;51.190;6.820;2023-01-24T05:35:24;10.97;;;9.33;;
10275;SDS011;5183;51.190;6.820;2023-01-24T05:37:53;10.20;;;9.10;;
10275;SDS011;5183;51.190;6.820;2023-01-24T05:40:19;10.87;;;9.70;;
10275;SDS011;5183;51.190;6.820;2023-01-24T05:42:47;10.50;;;9.40;;
10275;SDS011;5183;51.190;6.820;2023-01-24T05:45:17;12.00;;;9.57;;
10275;SDS011;5183;51.190;6.820;2023-01-24T05:47:44;12.07;;;10.03;;
10275;SDS011;5183;51.190;6.820;2023-01-24T05:50:11;10.53;;;9.23;;
10275;SDS011;5183;51.190;6.820;2023-01-24T05:52:39;12.50;;;9.80;;
10275;SDS011;5183;51.190;6.820;2023-01-24T05:55:12;11.43;;;9.57;;
10275;SDS011;5183;51.190;6.820;2023-01-24T05:57:39;11.93;;;10.63;;
10275;SDS011;5183;51.190;6.820;2023-01-24T06:00:14;10.83;;;9.50;;
10275;SDS011;5183;51.190;6.820;2023-01-24T06:02:41;10.37;;;9.23;;
10275;SDS011;5183;51.190;6.820;2023-01-24T06:05:08;11.30;;;10.10;;
10275;SDS011;5183;51.190;6.820;2023-01-24T06:07:42;11.20;;;9.70;;
10275;SDS011;5183;51.190;6.820;2023-01-24T06:10:09;11.30;;;10.03;;
10275;SDS011;5183;51.190;6.820;2023-01-24T06:12:36;13.13;;;10.03;;
10275;SDS011;5183;51.190;6.820;2023-01-24T06:15:03;11.07;;;9.43;;
10275;SDS011;5183;51.190;6.820;2023-01-24T06:17:32;12.10;;;10.20;;
10275;SDS011;5183;51.190;6.820;2023-01-24T06:19:59;12.70;;;10.23;;
10275;SDS011;5183;51.190;6.820;2023-01-24T06:22:28;13.10;;;10.97;;
10275;SDS011;5183;51.190;6.820;2023-01-24T06:25:07;11.30;;;9.93;;
10275;SDS011;5183;51.190;6.820;2023-01-24T06:27:42;11.03;;;9.83;;
10275;SDS011;5183;51.190;6.820;2023-01-24T06:30:11;13.27;;;10.43;;
10275;SDS011;5183;51.190;6.820;2023-01-24T06:32:40;11.37;;;10.10;;
10275;SDS011;5183;51.190;6.820;2023-01-24T06:35:28;15.10;;;10.87;;
10275;SDS011;5183;51.190;6.820;2023-01-24T06:38:03;12.47;;;10.53;;
10275;SDS011;5183;51.190;6.820;2023-01-24T06:40:30;12.33;;;11.00;;
10275;SDS011;5183;51.190;6.820;2023-01-24T06:43:05;11.83;;;10.60;;
10275;SDS011;5183;51.190;6.820;2023-01-24T06:45:33;12.67;;;10.77;;
10275;SDS011;5183;51.190;6.820;2023-01-24T06:50:32;14.87;;;12.20;;
10275;SDS011;5183;51.190;6.820;2023-01-24T06:52:59;12.33;;;10.77;;
10275;SDS011;5183;51.190;6.820;2023-01-24T06:55:26;12.70;;;11.20;;
10275;SDS011;5183;51.190;6.820;2023-01-24T06:57:53;12.37;;;11.07;;
10275;SDS011;5183;51.190;6.820;2023-01-24T07:00:21;13.70;;;11.73;;
10275;SDS011;5183;51.190;6.820;2023-01-24T07:02:47;13.77;;;11.47;;
10275;SDS011;5183;51.190;6.820;2023-01-24T07:05:22;14.10;;;11.30;;
10275;SDS011;5183;51.190;6.820;2023-01-24T07:07:50;13.83;;;12.07;;
10275;SDS011;5183;51.190;6.820;2023-01-24T07:10:17;13.80;;;11.73;;
10275;SDS011;5183;51.190;6.820;2023-01-24T07:12:43;14.77;;;12.47;;
10275;SDS011;5183;51.190;6.820;2023-01-24T07:15:10;13.67;;;11.83;;
10275;SDS011;5183;51.190;6.820;2023-01-24T07:17:37;14.53;;;11.70;;
10275;SDS011;5183;51.190;6.820;2023-01-24T07:20:05;14.60;;;12.23;;
10275;SDS011;5183;51.190;6.820;2023-01-24T07:22:34;14.50;;;11.90;;
10275;SDS011;5183;51.190;6.820;2023-01-24T07:25:05;14.47;;;12.00;;
10275;SDS011;5183;51.190;6.820;2023-01-24T07:27:36;14.47;;;11.97;;
10275;SDS011;5183;51.190;6.820;2023-01-24T07:30:03;15.15;;;13.57;;
10275;SDS011;5183;51.190;6.820;2023-01-24T07:32:31;14.53;;;12.30;;
10275;SDS011;5183;51.190;6.820;2023-01-24T07:34:58;15.80;;;13.10;;
10275;SDS011;5183;51.190;6.820;2023-01-24T07:37:25;13.77;;;11.97;;
10275;SDS011;5183;51.190;6.820;2023-01-24T07:39:51;13.53;;;12.00;;
10275;SDS011;5183;51.190;6.820;2023-01-24T07:42:19;14.73;;;12.07;;
10275;SDS011;5183;51.190;6.820;2023-01-24T07:44:46;14.10;;;12.50;;
10275;SDS011;5183;51.190;6.820;2023-01-24T07:47:13;14.40;;;12.30;;
10275;SDS011;5183;51.190;6.820;2023-01-24T07:49:40;15.20;;;12.57;;
10275;SDS011;5183;51.190;6.820;2023-01-24T07:52:07;15.47;;;12.67;;
10275;SDS011;5183;51.190;6.820;2023-01-24T07:54:34;14.23;;;12.07;;
10275;SDS011;5183;51.190;6.820;2023-01-24T07:57:01;14.60;;;12.37;;
10275;SDS011;5183;51.190;6.820;2023-01-24T07:59:29;14.17;;;12.20;;
10275;SDS011;5183;51.190;6.820;2023-01-24T08:01:56;14.33;;;12.10;;
10275;SDS011;5183;51.190;6.820;2023-01-24T08:04:22;14.60;;;12.13;;
10275;SDS011;5183;51.190;6.820;2023-01-24T08:06:49;16.47;;;12.63;;
10275;SDS011;5183;51.190;6.820;2023-01-24T08:09:33;14.97;;;12.33;;
10275;SDS011;5183;51.190;6.820;2023-01-24T08:12:00;16.37;;;12.83;;
10275;SDS011;5183;51.190;6.820;2023-01-24T08:14:27;14.43;;;12.13;;
10275;SDS011;5183;51.190;6.820;2023-01-24T08:16:55;15.40;;;12.87;;
10275;SDS011;5183;51.190;6.820;2023-01-24T08:19:22;15.50;;;12.67;;
10275;SDS011;5183;51.190;6.820;2023-01-24T08:21:49;14.17;;;12.27;;
10275;SDS011;5183;51.190;6.820;2023-01-24T08:24:16;15.23;;;12.33;;
10275;SDS011;5183;51.190;6.820;2023-01-24T08:26:46;14.50;;;12.47;;
10275;SDS011;5183;51.190;6.820;2023-01-24T08:29:14;14.57;;;12.17;;
10275;SDS011;5183;51.190;6.820;2023-01-24T08:31:40;13.37;;;11.63;;
10275;SDS011;5183;51.190;6.820;2023-01-24T08:34:09;14.43;;;12.00;;
10275;SDS011;5183;51.190;6.820;2023-01-24T08:36:36;15.10;;;13.03;;
10275;SDS011;5183;51.190;6.820;2023-01-24T08:39:03;13.83;;;12.33;;
10275;SDS011;5183;51.190;6.820;2023-01-24T08:41:30;15.97;;;11.90;;
10275;SDS011;5183;51.190;6.820;2023-01-24T08:43:57;14.80;;;12.80;;
10275;SDS011;5183;51.190;6.820;2023-01-24T08:46:24;16.03;;;12.93;;
10275;SDS011;5183;51.190;6.820;2023-01-24T08:48:52;14.13;;;12.20;;
10275;SDS011;5183;51.190;6.820;2023-01-24T08:51:20;15.57;;;12.47;;
10275;SDS011;5183;51.190;6.820;2023-01-24T08:53:47;16.70;;;13.33;;
10275;SDS011;5183;51.190;6.820;2023-01-24T08:56:14;14.93;;;12.47;;
10275;SDS011;5183;51.190;6.820;2023-01-24T08:58:42;14.40;;;12.20;;
10275;SDS011;5183;51.190;6.820;2023-01-24T09:01:09;14.43;;;12.37;;
10275;SDS011;5183;51.190;6.820;2023-01-24T09:03:36;14.93;;;12.87;;
10275;SDS011;5183;51.190;6.820;2023-01-24T09:06:04;14.63;;;12.53;;
10275;SDS011;5183;51.190;6.820;2023-01-24T09:08:32;16.43;;;12.90;;
10275;SDS011;5183;51.190;6.820;2023-01-24T09:11:05;14.10;;;12.50;;
10275;SDS011;5183;51.190;6.820;2023-01-24T09:13:32;14.97;;;13.07;;
10275;SDS011;5183;51.190;6.820;2023-01-24T09:15:58;14.80;;;11.67;;
10275;SDS011;5183;51.190;6.820;2023-01-24T09:18:25;15.57;;;13.10;;
10275;SDS011;5183;51.190;6.820;2023-01-24T09:20:52;15.67;;;13.03;;
10275;SDS011;5183;51.190;6.820;2023-01-24T09:23:19;13.87;;;12.43;;
10275;SDS011;5183;51.190;6.820;2023-01-24T09:25:50;14.37;;;12.57;;
10275;SDS011;5183;51.190;6.820;2023-01-24T09:28:18;15.17;;;12.77;;
10275;SDS011;5183;51.190;6.820;2023-01-24T09:30:46;15.33;;;13.70;;
10275;SDS011;5183;51.190;6.820;2023-01-24T09:33:13;15.70;;;13.43;;
10275;SDS011;5183;51.190;6.820;2023-01-24T09:35:42;13.73;;;12.17;;
10275;SDS011;5183;51.190;6.820;2023-01-24T09:38:16;14.97;;;13.37;;
10275;SDS011;5183;51.190;6.820;2023-01-24T09:40:43;15.50;;;12.57;;
10275;SDS011;5183;51.190;6.820;2023-01-24T09:43:15;18.13;;;13.50;;
10275;SDS011;5183;51.190;6.820;2023-01-24T09:45:55;16.53;;;14.00;;
10275;SDS011;5183;51.190;6.820;2023-01-24T09:48:31;14.90;;;13.27;;
10275;SDS011;5183;51.190;6.820;2023-01-24T09:50:59;15.30;;;12.83;;
10275;SDS011;5183;51.190;6.820;2023-01-24T09:53:33;14.73;;;13.07;;
10275;SDS011;5183;51.190;6.820;2023-01-24T09:56:05;14.73;;;13.23;;
10275;SDS011;5183;51.190;6.820;2023-01-24T09:58:39;14.87;;;13.17;;
10275;SDS011;5183;51.190;6.820;2023-01-24T10:01:08;18.20;;;14.77;;
10275;SDS011;5183;51.190;6.820;2023-01-24T10:03:37;15.77;;;13.13;;
10275;SDS011;5183;51.190;6.820;2023-01-24T10:06:06;14.77;;;12.73;;
10275;SDS011;5183;51.190;6.820;2023-01-24T10:08:37;15.33;;;13.33;;
10275;SDS011;5183;51.190;6.820;2023-01-24T10:11:15;14.63;;;13.13;;
10275;SDS011;5183;51.190;6.820;2023-01-24T10:13:57;15.47;;;13.13;;
10275;SDS011;5183;51.190;6.820;2023-01-24T10:16:47;15.03;;;13.23;;
10275;SDS011;5183;51.190;6.820;2023-01-24T10:19:30;14.67;;;13.13;;
10275;SDS011;5183;51.190;6.820;2023-01-24T10:22:18;15.60;;;13.30;;
10275;SDS011;5183;51.190;6.820;2023-01-24T10:24:56;14.53;;;12.77;;
10275;SDS011;5183;51.190;6.820;2023-01-24T10:27:30;14.87;;;13.00;;
10275;SDS011;5183;51.190;6.820;2023-01-24T10:30:11;17.93;;;13.53;;
10275;SDS011;5183;51.190;6.820;2023-01-24T10:32:40;14.50;;;13.00;;
10275;SDS011;5183;51.190;6.820;2023-01-24T10:35:11;14.87;;;13.20;;
10275;SDS011;5183;51.190;6.820;2023-01-24T10:37:41;15.80;;;13.17;;
10275;SDS011;5183;51.190;6.820;2023-01-24T10:40:11;15.20;;;12.70;;
10275;SDS011;5183;51.190;6.820;2023-01-24T10:42:39;14.10;;;12.57;;
10275;SDS011;5183;51.190;6.820;2023-01-24T10:45:16;13.80;;;12.30;;
10275;SDS011;5183;51.190;6.820;2023-01-24T10:47:55;16.83;;;14.43;;
10275;SDS011;5183;51.190;6.820;2023-01-24T10:50:32;14.93;;;12.60;;
10275;SDS011;5183;51.190;6.820;2023-01-24T10:53:06;15.83;;;12.70;;
10275;SDS011;5183;51.190;6.820;2023-01-24T10:55:39;17.13;;;12.30;;
10275;SDS011;5183;51.190;6.820;2023-01-24T10:58:18;15.30;;;12.27;;
10275;SDS011;5183;51.190;6.820;2023-01-24T11:00:54;14.57;;;12.73;;
10275;SDS011;5183;51.190;6.820;2023-01-24T11:03:23;13.67;;;12.23;;
10275;SDS011;5183;51.190;6.820;2023-01-24T11:05:52;13.93;;;12.37;;
10275;SDS011;5183;51.190;6.820;2023-01-24T11:08:21;13.63;;;12.23;;
10275;SDS011;5183;51.190;6.820;2023-01-24T11:10:53;14.70;;;12.63;;
10275;SDS011;5183;51.190;6.820;2023-01-24T11:13:25;13.47;;;11.97;;
10275;SDS011;5183;51.190;6.820;2023-01-24T11:16:00;12.93;;;11.63;;
10275;SDS011;5183;51.190;6.820;2023-01-24T11:18:29;14.00;;;12.50;;
10275;SDS011;5183;51.190;6.820;2023-01-24T11:21:05;14.43;;;12.10;;
10275;SDS011;5183;51.190;6.820;2023-01-24T11:23:34;35.17;;;28.23;;
10275;SDS011;5183;51.190;6.820;2023-01-24T11:26:02;17.67;;;14.03;;
10275;SDS011;5183;51.190;6.820;2023-01-24T11:28:31;13.37;;;11.93;;
10275;SDS011;5183;51.190;6.820;2023-01-24T11:31:01;12.83;;;11.43;;
10275;SDS011;5183;51.190;6.820;2023-01-24T11:33:37;13.73;;;11.93;;
10275;SDS011;5183;51.190;6.820;2023-01-24T11:36:26;14.13;;;12.60;;
10275;SDS011;5183;51.190;6.820;2023-01-24T11:39:08;13.00;;;11.70;;
10275;SDS011;5183;51.190;6.820;2023-01-24T11:41:47;13.20;;;11.57;;
10275;SDS011;5183;51.190;6.820;2023-01-24T11:47:12;13.70;;;12.30;;
10275;SDS011;5183;51.190;6.820;2023-01-24T11:49:46;13.23;;;11.83;;
10275;SDS011;5183;51.190;6.820;2023-01-24T11:52:41;13.60;;;11.73;;
10275;SDS011;5183;51.190;6.820;2023-01-24T11:55:28;14.47;;;12.80;;
10275;SDS011;5183;51.190;6.820;2023-01-24T11:58:11;15.70;;;13.07;;
10275;SDS011;5183;51.190;6.820;2023-01-24T12:00:47;14.07;;;12.57;;
10275;SDS011;5183;51.190;6.820;2023-01-24T12:03:30;14.13;;;12.47;;
10275;SDS011;5183;51.190;6.820;2023-01-24T12:06:08;13.67;;;12.27;;
10275;SDS011;5183;51.190;6.820;2023-01-24T12:08:46;15.27;;;13.07;;
10275;SDS011;5183;51.190;6.820;2023-01-24T12:11:27;12.43;;;11.13;;
10275;SDS011;5183;51.190;6.820;2023-01-24T12:13:59;14.00;;;12.50;;
10275;SDS011;5183;51.190;6.820;2023-01-24T12:16:41;13.37;;;11.97;;
10275;SDS011;5183;51.190;6.820;2023-01-24T12:19:27;13.67;;;12.27;;
10275;SDS011;5183;51.190;6.820;2023-01-24T12:22:10;14.47;;;12.07;;
10275;SDS011;5183;51.190;6.820;2023-01-24T12:24:41;13.00;;;11.63;;
10275;SDS011;5183;51.190;6.820;2023-01-24T12:27:13;13.10;;;11.63;;
10275;SDS011;5183;51.190;6.820;2023-01-24T12:29:43;13.57;;;11.87;;
10275;SDS011;5183;51.190;6.820;2023-01-24T12:32:16;14.90;;;11.97;;
10275;SDS011;5183;51.190;6.820;2023-01-24T12:34:49;13.73;;;11.80;;
10275;SDS011;5183;51.190;6.820;2023-01-24T12:37:23;13.13;;;11.83;;
10275;SDS011;5183;51.190;6.820;2023-01-24T12:39:56;12.77;;;11.43;;
10275;SDS011;5183;51.190;6.820;2023-01-24T12:42:31;13.60;;;11.83;;
10275;SDS011;5183;51.190;6.820;2023-01-24T12:45:10;12.97;;;11.67;;
10275;SDS011;5183;51.190;6.820;2023-01-24T12:47:41;14.17;;;12.60;;
10275;SDS011;5183;51.190;6.820;2023-01-24T12:50:15;13.07;;;11.77;;
10275;SDS011;5183;51.190;6.820;2023-01-24T12:52:52;13.30;;;11.90;;
10275;SDS011;5183;51.190;6.820;2023-01-24T12:55:27;15.03;;;12.40;;
10275;SDS011;5183;51.190;6.820;2023-01-24T12:58:00;13.83;;;12.33;;
10275;SDS011;5183;51.190;6.820;2023-01-24T13:00:40;12.80;;;11.50;;
10275;SDS011;5183;51.190;6.820;2023-01-24T13:03:20;13.33;;;11.93;;
10275;SDS011;5183;51.190;6.820;2023-01-24T13:05:58;13.17;;;11.77;;
10275;SDS011;5183;51.190;6.820;2023-01-24T13:08:33;13.07;;;11.63;;
10275;SDS011;5183;51.190;6.820;2023-01-24T13:11:19;12.87;;;11.47;;
10275;SDS011;5183;51.190;6.820;2023-01-24T13:13:52;13.27;;;11.87;;
10275;SDS011;5183;51.190;6.820;2023-01-24T13:22:46;13.50;;;12.10;;
10275;SDS011;5183;51.190;6.820;2023-01-24T13:25:24;13.23;;;11.93;;
10275;SDS011;5183;51.190;6.820;2023-01-24T13:28:08;13.40;;;11.50;;
10275;SDS011;5183;51.190;6.820;2023-01-24T13:30:46;13.67;;;12.13;;
10275;SDS011;5183;51.190;6.820;2023-01-24T13:33:17;13.93;;;12.27;;
10275;SDS011;5183;51.190;6.820;2023-01-24T13:35:48;14.50;;;12.33;;
10275;SDS011;5183;51.190;6.820;2023-01-24T13:38:18;13.93;;;11.63;;
10275;SDS011;5183;51.190;6.820;2023-01-24T13:40:56;13.63;;;12.23;;
10275;SDS011;5183;51.190;6.820;2023-01-24T13:49:31;14.87;;;12.57;;
10275;SDS011;5183;51.190;6.820;2023-01-24T13:52:00;12.77;;;11.43;;
10275;SDS011;5183;51.190;6.820;2023-01-24T13:54:36;14.33;;;12.13;;
10275;SDS011;5183;51.190;6.820;2023-01-24T13:57:15;14.20;;;12.10;;
10275;SDS011;5183;51.190;6.820;2023-01-24T13:59:59;16.23;;;13.63;;
10275;SDS011;5183;51.190;6.820;2023-01-24T14:02:59;21.87;;;16.03;;
10275;SDS011;5183;51.190;6.820;2023-01-24T14:05:36;14.77;;;12.60;;
10275;SDS011;5183;51.190;6.820;2023-01-24T14:08:16;14.73;;;13.10;;
10275;SDS011;5183;51.190;6.820;2023-01-24T14:11:18;12.83;;;11.47;;
10275;SDS011;5183;51.190;6.820;2023-01-24T14:20:01;15.73;;;12.80;;
10275;SDS011;5183;51.190;6.820;2023-01-24T14:22:33;13.37;;;11.97;;
10275;SDS011;5183;51.190;6.820;2023-01-24T14:25:16;13.70;;;12.30;;
10275;SDS011;5183;51.190;6.820;2023-01-24T14:27:57;14.97;;;12.40;;
10275;SDS011;5183;51.190;6.820;2023-01-24T14:30:29;12.83;;;11.47;;
10275;SDS011;5183;51.190;6.820;2023-01-24T14:33:00;13.20;;;11.47;;
10275;SDS011;5183;51.190;6.820;2023-01-24T14:35:50;14.63;;;12.13;;
10275;SDS011;5183;51.190;6.820;2023-01-24T14:38:26;13.10;;;11.80;;
10275;SDS011;5183;51.190;6.820;2023-01-24T14:40:55;16.27;;;14.10;;
10275;SDS011;5183;51.190;6.820;2023-01-24T14:43:33;15.10;;;13.50;;
10275;SDS011;5183;51.190;6.820;2023-01-24T14:46:12;15.60;;;13.67;;
10275;SDS011;5183;51.190;6.820;2023-01-24T14:48:42;18.43;;;13.57;;
10275;SDS011;5183;51.190;6.820;2023-01-24T14:51:13;15.30;;;13.70;;
10275;SDS011;5183;51.190;6.820;2023-01-24T14:53:48;16.80;;;13.83;;
10275;SDS011;5183;51.190;6.820;2023-01-24T14:56:19;15.03;;;13.43;;
10275;SDS011;5183;51.190;6.820;2023-01-24T14:58:48;16.60;;;14.03;;
10275;SDS011;5183;51.190;6.820;2023-01-24T15:01:22;15.60;;;14.00;;
10275;SDS011;5183;51.190;6.820;2023-01-24T15:03:52;14.43;;;12.93;;
10275;SDS011;5183;51.190;6.820;2023-01-24T15:06:21;18.97;;;14.87;;
10275;SDS011;5183;51.190;6.820;2023-01-24T15:08:52;15.40;;;13.80;;
10275;SDS011;5183;51.190;6.820;2023-01-24T15:11:21;14.27;;;12.77;;
10275;SDS011;5183;51.190;6.820;2023-01-24T15:13:51;13.83;;;12.43;;
10275;SDS011;5183;51.190;6.820;2023-01-24T15:16:31;16.20;;;13.67;;
10275;SDS011;5183;51.190;6.820;2023-01-24T15:19:03;16.63;;;14.27;;
10275;SDS011;5183;51.190;6.820;2023-01-24T15:21:33;15.60;;;13.03;;
10275;SDS011;5183;51.190;6.820;2023-01-24T15:24:04;17.50;;;14.47;;
10275;SDS011;5183;51.190;6.820;2023-01-24T15:26:37;15.27;;;13.43;;
10275;SDS011;5183;51.190;6.820;2023-01-24T15:32:26;15.97;;;14.27;;